createdAt,value
2022-10-03T00:05:07.473Z,9.40
2022-10-03T00:11:23.911Z,9.60
2022-10-03T00:17:46.075Z,9.70
2022-10-03T00:23:57.350Z,9.70
2022-10-03T00:30:20.759Z,9.80
2022-10-03T00:37:21.229Z,9.80
2022-10-03T00:43:47.936Z,9.80
2022-10-03T00:50:18.159Z,9.80
2022-10-03T00:56:25.514Z,9.80
2022-10-03T01:02:39.603Z,9.80
2022-10-03T01:08:57.949Z,9.80
2022-10-03T01:15:51.967Z,9.80
2022-10-03T01:21:59.809Z,9.80
2022-10-03T01:28:25.998Z,9.90
2022-10-03T01:34:45.606Z,10.00
2022-10-03T01:41:03.155Z,10.10
2022-10-03T01:47:29.334Z,10.20
2022-10-03T01:53:57.209Z,10.20
2022-10-03T02:00:12.274Z,10.30
2022-10-03T02:06:19.774Z,10.30
2022-10-03T02:12:40.849Z,10.30
2022-10-03T02:19:13.814Z,10.30
2022-10-03T02:25:36.326Z,10.40
2022-10-03T02:32:07.120Z,10.60
2022-10-03T02:38:39.014Z,10.60
2022-10-03T02:44:52.233Z,10.70
2022-10-03T02:50:58.291Z,10.60
2022-10-03T02:57:41.513Z,10.70
2022-10-03T03:03:56.391Z,10.60
2022-10-03T03:10:16.927Z,10.50
2022-10-03T03:16:48.634Z,10.50
2022-10-03T03:23:22.577Z,10.50
2022-10-03T03:37:46.754Z,10.30
2022-10-03T03:44:07.257Z,10.30
2022-10-03T03:50:32.777Z,10.40
2022-10-03T03:57:08.448Z,10.40
2022-10-03T04:03:16.188Z,10.40
2022-10-03T04:09:45.251Z,10.50
2022-10-03T04:16:39.318Z,10.60
2022-10-03T04:23:03.492Z,10.70
2022-10-03T04:29:26.030Z,10.70
2022-10-03T04:35:40.285Z,10.80
2022-10-03T04:41:45.289Z,10.80
2022-10-03T04:48:09.121Z,10.80
2022-10-03T04:54:44.558Z,10.80
2022-10-03T05:01:08.125Z,10.70
2022-10-03T05:07:47.733Z,10.60
2022-10-03T05:14:05.624Z,10.60
2022-10-03T05:20:33.682Z,10.50
2022-10-03T05:26:47.563Z,10.40
2022-10-03T05:33:19.242Z,10.30
2022-10-03T05:39:35.588Z,10.20
2022-10-03T05:46:03.837Z,10.20
2022-10-03T05:52:32.725Z,10.20
2022-10-03T05:59:09.470Z,10.30
2022-10-03T06:05:35.207Z,10.40
2022-10-03T06:11:59.039Z,10.60
2022-10-03T06:18:03.671Z,10.80
2022-10-03T06:24:46.632Z,10.80
2022-10-03T06:31:31.730Z,11.00
2022-10-03T06:37:58.253Z,11.10
2022-10-03T06:44:16.658Z,11.10
2022-10-03T06:51:09.174Z,11.30
2022-10-03T06:57:29.998Z,11.50
2022-10-03T07:04:00.588Z,11.50
2022-10-03T07:10:20.619Z,11.60
2022-10-03T07:16:51.436Z,11.70
2022-10-03T07:23:07.516Z,11.70
2022-10-03T07:36:40.685Z,12.10
2022-10-03T07:43:10.070Z,12.30
2022-10-03T07:49:46.042Z,12.60
2022-10-03T07:56:11.939Z,12.70
2022-10-03T08:02:28.671Z,12.70
2022-10-03T08:09:15.724Z,12.90
2022-10-03T08:15:42.331Z,13.10
2022-10-03T08:21:56.245Z,13.30
2022-10-03T08:28:21.473Z,13.50
2022-10-03T08:34:49.823Z,13.50
2022-10-03T08:41:28.317Z,13.60
2022-10-03T08:47:52.879Z,13.70
2022-10-03T08:54:19.451Z,14.00
2022-10-03T09:00:52.773Z,14.20
2022-10-03T09:07:18.621Z,14.00
2022-10-03T09:14:24.972Z,14.10
2022-10-03T09:20:31.342Z,14.50
2022-10-03T09:27:04.074Z,14.80
2022-10-03T09:33:43.252Z,14.90
2022-10-03T09:40:17.309Z,15.00
2022-10-03T09:46:46.473Z,15.00
2022-10-03T09:53:24.702Z,15.00
2022-10-03T09:59:33.529Z,15.10
2022-10-03T10:05:38.147Z,15.30
2022-10-03T10:12:21.654Z,15.20
2022-10-03T10:18:44.775Z,15.10
2022-10-03T10:25:07.118Z,14.70
2022-10-03T10:31:44.024Z,14.70
2022-10-03T10:37:57.806Z,14.60
2022-10-03T10:44:32.730Z,14.60
2022-10-03T10:50:56.136Z,14.60
2022-10-03T10:57:26.793Z,14.90
2022-10-03T11:04:03.037Z,15.20
2022-10-03T11:10:19.933Z,15.40
2022-10-03T11:16:55.068Z,15.30
2022-10-03T11:23:17.445Z,15.60
2022-10-03T11:29:22.335Z,16.10
2022-10-03T11:35:34.495Z,16.30
2022-10-03T11:41:51.455Z,16.00
2022-10-03T11:48:14.701Z,15.80
2022-10-03T11:54:30.399Z,15.50
2022-10-03T12:00:37.332Z,15.40
2022-10-03T12:07:17.912Z,15.20
2022-10-03T12:13:31.884Z,15.60
2022-10-03T12:19:42.399Z,16.00
2022-10-03T12:25:47.090Z,16.30
2022-10-03T12:32:09.218Z,16.60
2022-10-03T12:38:48.836Z,17.00
2022-10-03T12:45:00.630Z,17.90
2022-10-03T12:51:04.164Z,17.40
2022-10-03T12:57:45.795Z,17.60
2022-10-03T13:04:07.165Z,18.00
2022-10-03T13:59:19.185Z,18.30
2022-10-03T14:06:22.316Z,18.30
2022-10-03T14:12:55.339Z,17.80
2022-10-03T14:19:16.754Z,17.30
2022-10-03T14:25:30.236Z,17.10
2022-10-03T14:32:46.731Z,16.80
2022-10-03T14:39:03.121Z,16.70
2022-10-03T14:45:33.585Z,16.80
2022-10-03T14:51:44.695Z,16.80
2022-10-03T14:58:10.592Z,16.70
2022-10-03T15:11:35.557Z,16.20
2022-10-03T15:17:53.440Z,16.10
2022-10-03T15:24:28.854Z,16.40
2022-10-03T15:30:47.118Z,16.50
2022-10-03T15:37:19.007Z,16.30
2022-10-03T15:43:41.078Z,16.00
2022-10-03T15:50:12.293Z,15.80
2022-10-03T15:57:10.392Z,15.80
2022-10-03T16:03:53.882Z,15.60
2022-10-03T16:10:09.392Z,15.40
2022-10-03T16:16:47.298Z,15.10
2022-10-03T16:22:59.373Z,14.80
2022-10-03T16:29:23.074Z,14.40
2022-10-03T16:35:46.763Z,14.10
2022-10-03T16:41:56.953Z,13.60
2022-10-03T16:48:44.434Z,13.40
2022-10-03T17:01:36.004Z,12.80
2022-10-03T17:08:37.228Z,12.50
2022-10-03T17:14:55.205Z,12.20
2022-10-03T17:21:18.343Z,11.90
2022-10-03T17:27:41.779Z,11.80
2022-10-03T17:33:53.171Z,11.50
2022-10-03T17:39:59.646Z,11.40
2022-10-03T17:46:27.616Z,11.20
2022-10-03T17:52:49.614Z,11.00
2022-10-03T17:59:39.618Z,10.90
2022-10-03T18:06:00.667Z,10.90
2022-10-03T18:12:22.831Z,10.80
2022-10-03T18:19:06.534Z,10.60
2022-10-03T18:26:15.427Z,10.50
2022-10-03T18:32:22.483Z,10.30
2022-10-03T18:38:39.646Z,10.20
2022-10-03T18:44:52.794Z,10.10
2022-10-03T18:51:10.422Z,10.00
2022-10-03T18:57:35.307Z,9.90
2022-10-03T19:03:49.419Z,10.00
2022-10-03T19:10:18.989Z,9.90
2022-10-03T19:16:40.958Z,9.80
2022-10-03T19:23:14.574Z,9.70
2022-10-03T19:29:32.347Z,9.60
2022-10-03T19:35:47.576Z,9.50
2022-10-03T19:42:03.874Z,9.50
2022-10-03T19:48:15.724Z,9.40
2022-10-03T19:54:43.499Z,9.40
2022-10-03T20:00:51.901Z,9.30
2022-10-03T20:06:55.470Z,9.10
2022-10-03T20:13:03.907Z,9.10
2022-10-03T20:19:09.884Z,9.00
2022-10-03T20:25:36.566Z,9.00
2022-10-03T20:31:40.022Z,8.80
2022-10-03T20:37:48.509Z,8.70
2022-10-03T20:52:50.164Z,8.80
2022-10-03T20:58:55.848Z,8.80
2022-10-03T21:05:02.091Z,8.80
2022-10-03T21:11:20.661Z,8.70
2022-10-03T21:17:23.466Z,8.70
2022-10-03T21:23:27.304Z,8.60
2022-10-03T22:46:43.619Z,7.60
2022-10-03T22:52:50.594Z,7.60
2022-10-03T22:58:53.484Z,7.60
2022-10-03T23:04:57.763Z,7.50
2022-10-03T23:11:05.016Z,7.60
2022-10-03T23:17:07.461Z,7.60
2022-10-03T23:23:33.174Z,7.50
2022-10-03T23:29:35.631Z,7.50
2022-10-03T23:35:44.108Z,7.60
2022-10-03T23:41:56.925Z,7.60
2022-10-03T23:48:06.343Z,7.60
2022-10-03T23:54:10.710Z,7.60
